createdAt,value
2019-06-26T00:00:58.936Z,22.80
2019-06-26T00:03:27.347Z,22.80
2019-06-26T00:05:55.778Z,22.80
2019-06-26T00:08:24.263Z,22.80
2019-06-26T00:10:52.947Z,22.80
2019-06-26T00:13:26.293Z,22.80
2019-06-26T00:15:52.156Z,22.80
2019-06-26T00:18:20.576Z,22.70
2019-06-26T00:20:48.981Z,22.60
2019-06-26T00:23:17.707Z,22.50
2019-06-26T00:25:46.126Z,22.50
2019-06-26T00:28:14.538Z,22.40
2019-06-26T00:30:43.516Z,22.40
2019-06-26T00:33:12.245Z,22.30
2019-06-26T00:35:40.958Z,22.30
2019-06-26T00:38:09.388Z,22.30
2019-06-26T00:40:37.795Z,22.20
2019-06-26T00:43:06.569Z,22.20
2019-06-26T00:45:35.048Z,22.20
2019-06-26T00:48:03.841Z,22.10
2019-06-26T00:50:32.246Z,22.10
2019-06-26T00:53:00.922Z,22.10
2019-06-26T00:55:29.722Z,22.10
2019-06-26T00:57:58.177Z,22.10
2019-06-26T01:00:41.746Z,22.20
2019-06-26T01:03:10.175Z,22.10
2019-06-26T01:05:38.590Z,22.10
2019-06-26T01:08:07.017Z,22.10
2019-06-26T01:10:35.416Z,22.10
2019-06-26T01:13:03.840Z,22.00
2019-06-26T01:15:32.568Z,22.00
2019-06-26T01:18:01.023Z,21.90
2019-06-26T01:20:29.489Z,21.90
2019-06-26T01:22:57.951Z,21.80
2019-06-26T01:25:26.375Z,21.70
2019-06-26T01:27:55.199Z,21.60
2019-06-26T01:30:25.303Z,21.60
2019-06-26T01:32:53.829Z,21.50
2019-06-26T01:35:22.541Z,21.40
2019-06-26T01:37:51.029Z,21.40
2019-06-26T01:40:20.755Z,21.40
2019-06-26T01:42:49.240Z,21.40
2019-06-26T01:45:17.732Z,21.40
2019-06-26T01:47:46.185Z,21.40
2019-06-26T01:50:15.254Z,21.40
2019-06-26T01:52:44.098Z,21.40
2019-06-26T01:55:13.208Z,21.40
2019-06-26T01:57:41.663Z,21.30
2019-06-26T02:00:12.636Z,21.20
2019-06-26T02:02:41.137Z,21.20
2019-06-26T02:05:10.506Z,21.20
2019-06-26T02:07:39.020Z,21.20
2019-06-26T02:10:08.401Z,21.20
2019-06-26T02:12:37.149Z,21.20
2019-06-26T02:15:07.542Z,21.20
2019-06-26T02:17:36.363Z,21.20
2019-06-26T02:20:07.490Z,21.20
2019-06-26T02:22:35.917Z,21.20
2019-06-26T02:25:06.298Z,21.20
2019-06-26T02:27:34.779Z,21.20
2019-06-26T02:30:04.119Z,21.20
2019-06-26T02:32:32.560Z,21.20
2019-06-26T02:35:00.994Z,21.20
2019-06-26T02:37:29.422Z,21.20
2019-06-26T02:39:57.871Z,21.20
2019-06-26T02:42:26.300Z,21.10
2019-06-26T02:44:54.830Z,21.10
2019-06-26T02:47:23.267Z,21.10
2019-06-26T02:49:52.018Z,21.00
2019-06-26T02:52:20.458Z,21.00
2019-06-26T02:54:49.180Z,21.00
2019-06-26T02:57:17.634Z,21.00
2019-06-26T02:59:46.102Z,21.00
2019-06-26T03:02:14.588Z,21.00
2019-06-26T03:04:43.060Z,21.00
2019-06-26T03:07:11.497Z,20.90
2019-06-26T03:09:39.991Z,20.90
2019-06-26T03:12:08.760Z,20.80
2019-06-26T03:14:37.214Z,20.80
2019-06-26T03:17:05.639Z,20.70
2019-06-26T03:19:34.486Z,20.70
2019-06-26T03:22:02.914Z,20.70
2019-06-26T03:24:31.359Z,20.70
2019-06-26T03:27:00.144Z,20.70
2019-06-26T03:29:28.679Z,20.80
2019-06-26T03:31:57.106Z,20.70
2019-06-26T03:34:25.847Z,20.70
2019-06-26T03:36:54.562Z,20.60
2019-06-26T03:39:23.449Z,20.60
2019-06-26T03:41:51.873Z,20.60
2019-06-26T03:44:20.585Z,20.60
2019-06-26T03:46:49.009Z,20.60
2019-06-26T03:49:17.841Z,20.70
2019-06-26T03:51:46.277Z,20.70
2019-06-26T03:54:14.805Z,20.70
2019-06-26T03:56:43.245Z,20.70
2019-06-26T03:59:11.717Z,20.70
2019-06-26T04:01:40.497Z,20.70
2019-06-26T04:04:08.962Z,20.70
2019-06-26T04:06:37.669Z,20.70
2019-06-26T04:09:07.052Z,20.70
2019-06-26T04:11:35.842Z,20.70
2019-06-26T04:14:04.554Z,20.80
2019-06-26T04:16:33.344Z,20.70
2019-06-26T04:19:01.775Z,20.80
2019-06-26T04:21:30.572Z,20.70
2019-06-26T04:23:58.993Z,20.70
2019-06-26T04:26:27.432Z,20.80
2019-06-26T04:28:55.854Z,20.80
2019-06-26T04:31:24.309Z,20.80
2019-06-26T04:33:53.083Z,20.80
2019-06-26T04:36:21.515Z,20.80
2019-06-26T04:38:49.956Z,20.90
2019-06-26T04:41:18.384Z,21.00
2019-06-26T04:43:47.098Z,21.10
2019-06-26T04:46:15.528Z,21.10
2019-06-26T04:48:43.944Z,21.20
2019-06-26T04:51:12.470Z,21.30
2019-06-26T04:53:41.226Z,21.40
2019-06-26T04:56:09.678Z,21.50
2019-06-26T04:58:38.106Z,21.60
2019-06-26T05:01:06.630Z,21.60
2019-06-26T05:03:35.085Z,21.60
2019-06-26T05:06:03.978Z,21.70
2019-06-26T05:08:32.423Z,21.70
2019-06-26T05:11:00.860Z,21.80
2019-06-26T05:13:29.285Z,21.80
2019-06-26T05:16:13.328Z,21.90
2019-06-26T05:18:28.270Z,22.00
2019-06-26T05:20:56.973Z,22.00
2019-06-26T05:23:25.477Z,22.10
2019-06-26T05:25:54.227Z,22.20
2019-06-26T05:28:22.657Z,22.30
2019-06-26T05:30:51.118Z,22.40
2019-06-26T05:33:19.563Z,22.50
2019-06-26T05:35:47.984Z,22.60
2019-06-26T05:38:16.752Z,22.70
2019-06-26T05:40:45.190Z,22.80
2019-06-26T05:43:13.604Z,22.80
2019-06-26T05:45:42.372Z,22.90
2019-06-26T05:48:10.816Z,23.00
2019-06-26T05:50:39.280Z,23.00
2019-06-26T05:53:07.734Z,23.10
2019-06-26T05:55:36.711Z,23.20
2019-06-26T05:58:05.128Z,23.20
2019-06-26T06:00:33.588Z,23.30
2019-06-26T06:03:02.358Z,23.40
2019-06-26T06:05:30.833Z,23.50
2019-06-26T06:07:59.340Z,23.50
2019-06-26T06:10:27.856Z,23.70
2019-06-26T06:12:56.699Z,23.80
2019-06-26T06:15:25.137Z,24.00
2019-06-26T06:17:55.686Z,24.10
2019-06-26T06:20:27.243Z,24.20
2019-06-26T06:22:56.021Z,24.30
2019-06-26T06:25:24.459Z,24.40
2019-06-26T06:27:52.910Z,24.50
2019-06-26T06:30:21.410Z,24.70
2019-06-26T06:32:49.843Z,24.80
2019-06-26T06:35:18.262Z,24.90
2019-06-26T06:37:46.759Z,24.90
2019-06-26T06:40:15.689Z,25.00
2019-06-26T06:42:44.134Z,25.10
2019-06-26T06:45:13.121Z,25.20
2019-06-26T06:47:41.585Z,25.30
2019-06-26T06:50:10.238Z,25.50
2019-06-26T06:52:39.111Z,25.60
2019-06-26T06:55:08.280Z,25.80
2019-06-26T06:57:37.118Z,26.00
2019-06-26T07:00:07.023Z,26.30
2019-06-26T07:02:35.950Z,26.60
2019-06-26T07:05:07.460Z,27.00
2019-06-26T07:07:35.937Z,27.60
2019-06-26T07:10:06.266Z,28.50
2019-06-26T07:12:34.812Z,29.30
2019-06-26T07:15:05.315Z,30.10
2019-06-26T07:17:34.168Z,30.80
2019-06-26T07:20:02.710Z,31.40
2019-06-26T07:22:31.173Z,31.70
2019-06-26T07:24:59.893Z,32.10
2019-06-26T07:27:28.690Z,32.50
2019-06-26T07:29:57.674Z,33.00
2019-06-26T07:32:26.134Z,33.30
2019-06-26T07:34:54.555Z,33.80
2019-06-26T07:37:23.066Z,34.10
2019-06-26T07:39:51.906Z,34.50
2019-06-26T07:42:20.410Z,35.00
2019-06-26T07:44:48.849Z,35.30
2019-06-26T07:47:22.890Z,35.40
2019-06-26T07:49:47.469Z,35.60
2019-06-26T07:52:15.928Z,36.00
2019-06-26T07:54:44.430Z,36.30
2019-06-26T07:57:13.204Z,36.20
2019-06-26T07:59:42.019Z,36.20
2019-06-26T08:02:10.539Z,36.00
2019-06-26T08:04:39.586Z,35.60
2019-06-26T08:07:08.063Z,35.10
2019-06-26T08:09:36.484Z,35.40
2019-06-26T08:12:05.103Z,35.00
2019-06-26T08:14:33.790Z,35.10
2019-06-26T08:17:02.215Z,35.40
2019-06-26T08:19:31.088Z,36.00
2019-06-26T08:21:59.947Z,36.50
2019-06-26T08:24:28.416Z,36.50
2019-06-26T08:26:56.842Z,35.70
2019-06-26T08:29:25.319Z,35.60
2019-06-26T08:31:54.070Z,36.20
2019-06-26T08:34:22.505Z,36.60
2019-06-26T08:36:50.936Z,37.00
2019-06-26T08:39:19.393Z,37.50
2019-06-26T08:41:48.205Z,37.90
2019-06-26T08:44:16.978Z,38.30
2019-06-26T08:46:45.806Z,38.80
2019-06-26T08:49:24.914Z,39.00
2019-06-26T08:51:44.785Z,39.40
2019-06-26T08:54:13.233Z,39.60
2019-06-26T08:56:41.663Z,39.90
2019-06-26T08:59:10.418Z,40.10
2019-06-26T09:01:38.850Z,40.20
2019-06-26T09:04:07.796Z,40.20
2019-06-26T09:06:36.232Z,40.20
2019-06-26T09:09:08.040Z,40.10
2019-06-26T09:11:36.465Z,40.30
2019-06-26T09:14:05.532Z,40.80
2019-06-26T09:16:33.971Z,40.30
2019-06-26T09:19:03.521Z,40.00
2019-06-26T09:21:32.239Z,40.00
2019-06-26T09:24:00.717Z,40.20
2019-06-26T09:26:33.648Z,40.40
2019-06-26T09:29:02.440Z,40.40
2019-06-26T09:31:30.874Z,40.80
2019-06-26T09:33:59.688Z,41.10
2019-06-26T09:36:28.491Z,41.10
2019-06-26T09:38:58.005Z,41.20
2019-06-26T09:41:27.153Z,41.50
2019-06-26T09:43:55.650Z,41.80
2019-06-26T09:46:24.092Z,42.00
2019-06-26T09:48:53.678Z,42.00
2019-06-26T09:51:22.513Z,42.10
2019-06-26T09:53:50.949Z,42.20
2019-06-26T09:56:19.386Z,42.20
2019-06-26T09:58:47.820Z,42.30
2019-06-26T10:01:16.242Z,42.20
2019-06-26T10:03:45.353Z,42.10
2019-06-26T10:06:14.262Z,42.10
2019-06-26T10:08:42.695Z,41.70
2019-06-26T10:11:11.137Z,41.80
2019-06-26T10:13:39.603Z,42.10
2019-06-26T10:16:08.378Z,42.30
2019-06-26T10:18:41.888Z,42.40
2019-06-26T10:21:13.342Z,42.60
2019-06-26T10:23:41.750Z,42.70
2019-06-26T10:26:10.198Z,42.80
2019-06-26T10:28:38.651Z,43.00
2019-06-26T10:31:07.434Z,43.20
2019-06-26T10:33:35.841Z,43.40
2019-06-26T10:36:04.389Z,43.60
2019-06-26T10:38:32.873Z,43.10
2019-06-26T10:41:01.846Z,43.20
2019-06-26T10:43:30.640Z,43.50
2019-06-26T10:45:59.152Z,43.90
2019-06-26T10:48:28.021Z,44.20
2019-06-26T10:50:58.893Z,44.30
2019-06-26T10:53:26.636Z,44.30
2019-06-26T10:55:55.151Z,44.70
2019-06-26T10:58:23.663Z,44.90
2019-06-26T11:00:52.226Z,45.10
2019-06-26T11:03:20.671Z,45.20
2019-06-26T11:05:49.111Z,45.30
2019-06-26T11:08:17.895Z,45.20
2019-06-26T11:10:46.351Z,45.30
2019-06-26T11:13:15.245Z,45.30
2019-06-26T11:15:43.714Z,45.20
2019-06-26T11:18:12.233Z,44.60
2019-06-26T11:20:40.998Z,44.10
2019-06-26T11:23:09.435Z,43.80
2019-06-26T11:25:37.874Z,44.10
2019-06-26T11:28:06.301Z,44.60
2019-06-26T11:30:35.035Z,45.30
2019-06-26T11:33:03.489Z,45.20
2019-06-26T11:35:32.245Z,45.40
2019-06-26T11:38:00.979Z,45.80
2019-06-26T11:40:29.422Z,46.30
2019-06-26T11:42:57.871Z,45.90
2019-06-26T11:45:26.539Z,45.90
2019-06-26T11:47:55.414Z,45.60
2019-06-26T11:50:24.815Z,45.30
2019-06-26T11:52:59.066Z,45.20
2019-06-26T12:01:47.951Z,46.20
2019-06-26T12:04:16.703Z,45.80
2019-06-26T12:06:46.252Z,45.40
2019-06-26T12:09:15.123Z,44.60
2019-06-26T12:11:44.353Z,44.60
2019-06-26T12:14:14.883Z,45.30
2019-06-26T12:16:43.324Z,45.90
2019-06-26T12:19:11.755Z,46.40
2019-06-26T12:21:40.224Z,46.90
2019-06-26T12:24:08.701Z,47.20
2019-06-26T12:26:37.200Z,47.50
2019-06-26T12:29:05.681Z,47.70
2019-06-26T12:31:34.220Z,48.00
2019-06-26T12:34:02.684Z,48.10
2019-06-26T12:36:37.129Z,48.20
2019-06-26T12:39:07.684Z,48.30
2019-06-26T12:41:36.428Z,47.70
2019-06-26T12:44:04.848Z,47.10
2019-06-26T12:46:33.319Z,46.80
2019-06-26T12:49:01.876Z,46.20
2019-06-26T12:51:30.625Z,46.00
2019-06-26T12:53:59.061Z,46.00
2019-06-26T12:56:27.804Z,46.00
2019-06-26T12:58:59.800Z,45.70
2019-06-26T13:01:27.011Z,45.40
2019-06-26T13:03:55.432Z,44.80
2019-06-26T13:06:23.907Z,44.40
2019-06-26T13:08:52.390Z,44.20
2019-06-26T13:11:20.830Z,43.90
2019-06-26T13:14:01.894Z,43.60
2019-06-26T13:16:19.755Z,43.60
2019-06-26T13:18:48.527Z,43.70
2019-06-26T13:21:16.968Z,43.80
2019-06-26T13:23:45.494Z,43.80
2019-06-26T13:26:13.921Z,43.80
2019-06-26T13:28:42.640Z,43.60
2019-06-26T13:31:11.148Z,43.50
2019-06-26T13:33:42.199Z,43.30
2019-06-26T13:36:20.082Z,42.70
2019-06-26T13:38:49.053Z,42.50
2019-06-26T13:41:23.877Z,42.50
2019-06-26T13:43:53.789Z,42.70
2019-06-26T13:46:25.858Z,42.90
2019-06-26T13:48:54.289Z,43.20
2019-06-26T13:51:23.847Z,43.30
2019-06-26T13:53:52.318Z,43.30
2019-06-26T13:56:21.211Z,43.10
2019-06-26T13:58:49.670Z,43.10
2019-06-26T14:01:18.954Z,43.20
2019-06-26T14:03:47.502Z,43.20
2019-06-26T14:06:16.387Z,43.30
2019-06-26T14:08:44.872Z,43.20
2019-06-26T14:11:14.654Z,43.30
2019-06-26T14:13:43.441Z,43.40
2019-06-26T14:16:11.939Z,43.40
2019-06-26T14:18:40.808Z,43.60
2019-06-26T14:21:24.490Z,43.70
2019-06-26T14:23:39.404Z,43.70
2019-06-26T14:26:07.858Z,43.70
2019-06-26T14:28:36.312Z,43.50
2019-06-26T14:31:05.048Z,43.60
2019-06-26T14:33:33.486Z,43.50
2019-06-26T14:36:01.917Z,43.30
2019-06-26T14:38:30.344Z,43.20
2019-06-26T14:40:59.083Z,43.00
2019-06-26T14:43:27.874Z,42.80
2019-06-26T14:45:56.289Z,42.50
2019-06-26T14:48:25.121Z,42.30
2019-06-26T14:50:53.561Z,42.10
2019-06-26T14:53:22.389Z,42.10
2019-06-26T14:55:50.849Z,42.20
2019-06-26T14:58:19.497Z,42.30
2019-06-26T15:00:48.294Z,42.40
2019-06-26T15:03:17.327Z,42.60
2019-06-26T15:05:46.119Z,42.70
2019-06-26T15:08:14.551Z,42.80
2019-06-26T15:10:42.988Z,42.90
2019-06-26T15:13:11.424Z,42.70
2019-06-26T15:15:40.152Z,42.50
2019-06-26T15:18:10.225Z,42.50
2019-06-26T15:20:38.659Z,42.40
2019-06-26T15:23:07.812Z,42.20
2019-06-26T15:25:36.624Z,42.00
2019-06-26T15:28:05.061Z,42.00
2019-06-26T15:30:33.787Z,42.00
2019-06-26T15:33:02.243Z,42.00
2019-06-26T15:35:30.699Z,42.10
2019-06-26T15:37:59.163Z,42.20
2019-06-26T15:40:27.599Z,42.30
2019-06-26T15:42:56.039Z,42.40
2019-06-26T15:45:24.895Z,42.50
2019-06-26T15:47:53.334Z,42.60
2019-06-26T15:50:22.135Z,42.70
2019-06-26T15:52:50.874Z,42.70
2019-06-26T15:55:19.340Z,42.70
2019-06-26T15:57:48.097Z,42.70
2019-06-26T16:00:17.736Z,42.60
2019-06-26T16:02:46.182Z,42.60
2019-06-26T16:05:15.065Z,42.70
2019-06-26T16:07:43.863Z,42.60
2019-06-26T16:10:12.946Z,42.60
2019-06-26T16:12:41.374Z,42.50
2019-06-26T16:15:10.249Z,42.60
2019-06-26T16:17:49.545Z,42.80
2019-06-26T16:20:18.485Z,42.80
2019-06-26T16:22:46.902Z,42.90
2019-06-26T16:25:16.533Z,43.00
2019-06-26T16:27:45.229Z,42.90
2019-06-26T16:30:13.753Z,42.80
2019-06-26T16:32:42.197Z,42.80
2019-06-26T16:35:12.297Z,42.70
2019-06-26T16:37:41.471Z,42.80
2019-06-26T16:40:10.386Z,42.60
2019-06-26T16:42:39.868Z,42.40
2019-06-26T16:45:09.196Z,42.20
2019-06-26T16:47:37.624Z,42.30
2019-06-26T16:50:07.468Z,42.30
2019-06-26T16:52:48.711Z,42.30
2019-06-26T16:55:08.434Z,42.20
2019-06-26T16:57:36.882Z,42.20
2019-06-26T17:00:10.107Z,42.10
2019-06-26T17:02:38.775Z,42.10
2019-06-26T17:05:07.865Z,42.10
2019-06-26T17:07:36.321Z,42.10
2019-06-26T17:10:08.834Z,42.00
2019-06-26T17:12:37.721Z,41.90
2019-06-26T17:15:10.841Z,41.70
2019-06-26T17:17:39.274Z,41.50
2019-06-26T17:20:08.291Z,41.20
2019-06-26T17:22:36.835Z,41.00
2019-06-26T17:25:07.112Z,40.70
2019-06-26T17:27:44.802Z,40.60
2019-06-26T17:30:14.170Z,40.50
2019-06-26T17:32:42.592Z,40.40
2019-06-26T17:35:11.179Z,40.20
2019-06-26T17:37:39.907Z,39.90
2019-06-26T17:40:14.517Z,39.70
2019-06-26T17:42:42.946Z,39.60
2019-06-26T17:45:11.809Z,39.50
2019-06-26T17:47:40.310Z,39.40
2019-06-26T17:50:09.387Z,39.20
2019-06-26T17:52:38.618Z,39.00
2019-06-26T17:55:08.573Z,38.90
2019-06-26T17:57:37.121Z,38.80
2019-06-26T18:00:10.083Z,38.70
2019-06-26T18:02:38.950Z,38.60
2019-06-26T18:05:07.838Z,38.50
2019-06-26T18:07:36.256Z,38.40
2019-06-26T18:10:06.293Z,38.20
2019-06-26T18:12:34.715Z,38.00
2019-06-26T18:15:06.902Z,37.90
2019-06-26T18:17:36.682Z,37.70
2019-06-26T18:20:06.658Z,37.50
2019-06-26T18:22:35.447Z,37.30
2019-06-26T18:25:05.090Z,37.10
2019-06-26T18:27:33.885Z,36.90
2019-06-26T18:30:02.362Z,36.70
2019-06-26T18:32:31.165Z,36.50
2019-06-26T18:34:59.939Z,36.30
2019-06-26T18:37:28.378Z,36.00
2019-06-26T18:39:56.796Z,35.60
2019-06-26T18:42:25.585Z,35.10
2019-06-26T18:44:54.009Z,34.70
2019-06-26T18:47:22.441Z,34.50
2019-06-26T18:49:56.891Z,34.40
2019-06-26T18:52:25.661Z,34.40
2019-06-26T18:54:54.086Z,34.30
2019-06-26T18:57:22.816Z,34.20
2019-06-26T18:59:51.238Z,33.90
2019-06-26T19:02:19.674Z,33.50
2019-06-26T19:04:48.098Z,33.10
2019-06-26T19:07:16.835Z,32.90
2019-06-26T19:09:45.257Z,32.70
2019-06-26T19:12:14.022Z,32.50
2019-06-26T19:14:45.845Z,32.40
2019-06-26T19:17:12.907Z,32.40
2019-06-26T19:19:41.701Z,32.20
2019-06-26T19:22:10.585Z,31.80
2019-06-26T19:24:39.026Z,31.60
2019-06-26T19:27:07.884Z,31.50
2019-06-26T19:29:36.339Z,31.50
2019-06-26T19:32:05.230Z,31.50
2019-06-26T19:34:33.713Z,31.40
2019-06-26T19:37:02.229Z,31.30
2019-06-26T19:39:30.717Z,31.20
2019-06-26T19:41:59.197Z,31.10
2019-06-26T19:44:27.943Z,31.00
2019-06-26T19:46:56.443Z,30.90
2019-06-26T19:49:24.908Z,30.80
2019-06-26T19:51:53.673Z,30.60
2019-06-26T19:54:27.547Z,30.50
2019-06-26T19:56:52.302Z,30.30
2019-06-26T19:59:20.737Z,30.20
2019-06-26T20:01:51.485Z,30.10
2019-06-26T20:04:20.188Z,29.90
2019-06-26T20:06:48.631Z,29.80
2019-06-26T20:09:20.115Z,29.70
2019-06-26T20:11:48.597Z,29.60
2019-06-26T20:14:17.398Z,29.50
2019-06-26T20:16:46.146Z,29.30
2019-06-26T20:19:14.590Z,29.20
2019-06-26T20:21:43.339Z,29.10
2019-06-26T20:24:11.797Z,29.00
2019-06-26T20:26:40.582Z,28.90
2019-06-26T20:29:09.023Z,28.80
2019-06-26T20:31:38.535Z,28.70
2019-06-26T20:34:06.980Z,28.60
2019-06-26T20:36:37.101Z,28.50
2019-06-26T20:39:05.719Z,28.40
2019-06-26T20:41:34.178Z,28.30
2019-06-26T20:44:02.642Z,28.30
2019-06-26T20:46:31.073Z,28.20
2019-06-26T20:48:59.558Z,28.20
2019-06-26T20:51:27.988Z,28.20
2019-06-26T20:53:56.447Z,28.10
2019-06-26T20:56:25.897Z,28.10
2019-06-26T20:58:54.811Z,28.10
2019-06-26T21:01:23.256Z,28.10
2019-06-26T21:03:51.775Z,28.10
2019-06-26T21:06:20.561Z,28.00
2019-06-26T21:08:49.005Z,27.90
2019-06-26T21:11:18.104Z,27.80
2019-06-26T21:13:46.554Z,27.80
2019-06-26T21:16:15.313Z,27.70
2019-06-26T21:18:43.753Z,27.70
2019-06-26T21:21:12.490Z,27.60
2019-06-26T21:23:41.250Z,27.50
2019-06-26T21:26:10.035Z,27.40
2019-06-26T21:28:38.469Z,27.40
2019-06-26T21:31:06.911Z,27.30
2019-06-26T21:33:35.363Z,27.20
2019-06-26T21:36:03.794Z,27.10
2019-06-26T21:38:32.237Z,27.00
2019-06-26T21:41:01.029Z,27.00
2019-06-26T21:43:29.463Z,26.90
2019-06-26T21:45:58.302Z,26.90
2019-06-26T21:48:27.076Z,26.90
2019-06-26T21:50:55.566Z,26.90
2019-06-26T21:53:24.334Z,26.80
2019-06-26T21:55:52.781Z,26.80
2019-06-26T21:58:21.506Z,26.70
2019-06-26T22:00:50.086Z,26.70
2019-06-26T22:03:18.810Z,26.60
2019-06-26T22:05:47.264Z,26.60
2019-06-26T22:08:15.741Z,26.60
2019-06-26T22:10:44.222Z,26.60
2019-06-26T22:13:12.656Z,26.50
2019-06-26T22:15:41.106Z,26.40
2019-06-26T22:18:09.911Z,26.40
2019-06-26T22:20:38.643Z,26.30
2019-06-26T22:23:07.522Z,26.30
2019-06-26T22:25:49.890Z,26.20
2019-06-26T22:28:06.199Z,26.20
2019-06-26T22:30:34.629Z,26.20
2019-06-26T22:33:03.127Z,26.10
2019-06-26T22:35:31.878Z,26.10
2019-06-26T22:38:00.582Z,26.00
2019-06-26T22:40:29.016Z,26.00
2019-06-26T22:42:57.546Z,25.90
2019-06-26T22:45:25.977Z,25.80
2019-06-26T22:47:54.842Z,25.70
2019-06-26T22:50:23.686Z,25.60
2019-06-26T22:52:52.132Z,25.60
2019-06-26T22:55:20.591Z,25.60
2019-06-26T22:57:49.032Z,25.70
2019-06-26T23:00:18.426Z,25.60
2019-06-26T23:02:46.854Z,25.50
2019-06-26T23:05:15.701Z,25.40
2019-06-26T23:07:44.152Z,25.20
2019-06-26T23:10:13.644Z,25.10
2019-06-26T23:12:42.464Z,25.10
2019-06-26T23:15:11.967Z,25.10
2019-06-26T23:17:40.400Z,25.10
2019-06-26T23:20:09.950Z,25.10
2019-06-26T23:22:38.738Z,25.10
2019-06-26T23:25:08.025Z,25.00
2019-06-26T23:27:36.824Z,24.80
2019-06-26T23:30:19.271Z,24.50
2019-06-26T23:32:47.730Z,24.30
2019-06-26T23:35:16.491Z,24.10
2019-06-26T23:37:45.388Z,24.20
2019-06-26T23:40:15.971Z,24.20
2019-06-26T23:42:44.795Z,24.20
2019-06-26T23:45:13.320Z,24.30
2019-06-26T23:47:41.780Z,24.40
2019-06-26T23:50:10.383Z,24.40
2019-06-26T23:52:38.835Z,24.40
2019-06-26T23:55:08.122Z,24.40
2019-06-26T23:57:39.597Z,24.30
